LICALIPY

Guest
Details From LICA - Lamezia Terme
To LIPY - Falconara
Flight Number -
Tags Generated
Created
Modified
Stats Distance 311 nm / 576 km
Max Altitude 0 ft / 0 m
Waypoints 3
Social Downloads 0
Likes 0
Share VATSIM

Download

Looking for another format? Having issues loading an existing format? Contact us
Advertisement - Login to hide

Notes

Generated

Route

LICA ERDUX LIPY

ID Type Via Altitude Latitude Longitude Leg Dist Tot Dist Heading (true) Name
O LICA APT - 0 ft / 0 m 38.90699˚ 16.22859˚ - 0 nm - -
ERDUX FIX - 0 ft / 0 m 43.25083˚ 13.68222˚ 285 nm 285 nm 337° / 335° -
O LIPY APT - 0 ft / 0 m 43.60691˚ 13.34935˚ 25 nm 311 nm 326° / 326° -

Altitude Profile

Advertisement - Login to hide

Weather


0- 5 10 15 20 25 30 35+ Temperature / ° C

Clouds and Precipitation
Forecast for 2018-05-22 12:00 UTC. Updated an hour ago

Ground ~20,000 ft ~40,000 ft Winds

LICA

Details ICAO LICA (SUF)
Name Lamezia Terme
Region Italy
Timezone Europe/Rome (UTC+2.0)
Stats Elevation 39 ft / 12 m (AMSL)
Location 38.905394° 16.242271°
Runways 1
Magnetic Variation 3.537° E

METAR

LICA 221150Z 08016KT CAVOK 29/11 Q1013

Decode

TAF

TAF AMD TAF AMD LICA 221128Z 2212/2312 09015KT 9999 SCT030 BECMG 2216/2218 VRB05KT TEMPO 2300/2306 SHRA BECMG 2309/2312 26010KT

Decode

Departure Runways

ID Width Length Bearing (true) Bearing (mag) Surface Threshold Offset Overrun Length
10 148 ft / 45 m 7,858 ft / 2,395 m 98.54° 95.00° Asphalt 348 ft / 106 m 0 ft / 0 m
28 148 ft / 45 m 7,858 ft / 2,395 m 278.55° 275.01° Asphalt 351 ft / 107 m 0 ft / 0 m

LIPY

Details ICAO LIPY (AOI)
Name FALCONARA
Region Italy
Timezone Europe/Rome (UTC+2.0)
Stats Elevation 49 ft / 15 m (AMSL)
Location 43.616351° 13.362310°
Runways 1
Magnetic Variation 3.341° E

METAR

LIPY 221150Z 04015KT 9999 4500N TSRA SCT015CB BKN030 22/17 Q1013

Decode

TAF

TAF LIPY 221100Z 2212/2312 05012KT 9999 SCT040 TEMPO 2212/2218 4000 TSRA BECMG 2218/2220 VRB05KT TEMPO 2300/2306 TSRA BECMG 2305/2307 34010KT

Decode

Destination Runways

ID Width Length Bearing (true) Bearing (mag) Surface Threshold Offset Overrun Length
04 148 ft / 45 m 9,711 ft / 2,960 m 44.81° 41.47° Asphalt 641 ft / 195 m 0 ft / 0 m
22 148 ft / 45 m 9,711 ft / 2,960 m 224.83° 221.49° Asphalt 492 ft / 150 m 0 ft / 0 m

Approach Navaids

Runway Type Ident Frequency Range Bearing (true) Bearing (mag) Slope Elevation
22 Localiser IFA 111.90 MHz 18 nm / 33 km 224.79° 221.45° - 47 ft / 14 m (AMSL)
22 Glidescope IFA 111.90 MHz 10 nm / 19 km 224.82° 221.48° 3.50° 34 ft / 10 m (AMSL)
22 DME IFA 111.90 MHz 18 nm / 33 km - - - 50 ft / 15 m (AMSL)